createdAt,value
2023-04-06T00:00:34.419Z,60.28
2023-04-06T00:03:01.345Z,59.74
2023-04-06T00:05:29.023Z,60.08
2023-04-06T00:07:56.939Z,59.99
2023-04-06T00:10:23.852Z,60.06
2023-04-06T00:12:50.439Z,61.15
2023-04-06T00:15:17.054Z,60.82
2023-04-06T00:17:43.991Z,60.61
2023-04-06T00:20:11.159Z,60.63
2023-04-06T00:22:37.849Z,60.77
2023-04-06T00:25:04.701Z,61.18
2023-04-06T00:27:31.377Z,60.95
2023-04-06T00:29:57.913Z,60.58
2023-04-06T00:32:24.796Z,60.58
2023-04-06T00:34:52.649Z,60.78
2023-04-06T00:37:20.136Z,61.18
2023-04-06T00:39:46.707Z,60.19
2023-04-06T00:42:14.739Z,60.77
2023-04-06T00:44:44.715Z,60.96
2023-04-06T00:47:11.291Z,61.44
2023-04-06T00:49:37.830Z,60.95
2023-04-06T00:52:04.561Z,60.69
2023-04-06T00:54:31.766Z,61.69
2023-04-06T00:56:59.441Z,61.47
2023-04-06T00:59:29.606Z,62.08
2023-04-06T01:01:57.315Z,61.50
2023-04-06T01:04:34.218Z,61.94
2023-04-06T01:07:02.214Z,61.54
2023-04-06T01:09:36.657Z,61.75
2023-04-06T01:12:09.052Z,62.13
2023-04-06T01:14:36.089Z,61.86
2023-04-06T01:17:02.799Z,62.10
2023-04-06T01:19:32.049Z,62.21
2023-04-06T01:21:59.022Z,62.17
2023-04-06T01:24:31.873Z,62.23
2023-04-06T01:27:18.675Z,62.62
2023-04-06T01:30:18.403Z,62.28
2023-04-06T01:32:58.513Z,61.82
2023-04-06T01:35:37.614Z,62.27
2023-04-06T01:38:17.309Z,61.71
2023-04-06T01:40:44.973Z,61.98
2023-04-06T01:43:13.245Z,62.34
2023-04-06T01:45:55.355Z,62.77
2023-04-06T01:48:23.586Z,62.62
2023-04-06T01:50:50.268Z,62.48
2023-04-06T01:53:22.730Z,62.13
2023-04-06T01:55:50.444Z,62.98
2023-04-06T01:58:33.554Z,62.83
2023-04-06T02:01:01.311Z,61.77
2023-04-06T02:03:34.537Z,61.90
2023-04-06T02:06:07.142Z,61.82
2023-04-06T02:08:38.488Z,61.99
2023-04-06T02:11:05.007Z,62.85
2023-04-06T02:13:38.623Z,62.33
2023-04-06T02:16:05.750Z,62.91
2023-04-06T02:18:34.872Z,62.84
2023-04-06T02:21:01.676Z,62.54
2023-04-06T02:23:28.596Z,63.24
2023-04-06T02:25:57.222Z,63.16
2023-04-06T02:28:24.903Z,63.17
2023-04-06T02:30:51.680Z,63.22
2023-04-06T02:33:19.163Z,63.46
2023-04-06T02:35:48.078Z,62.78
2023-04-06T02:38:14.923Z,62.67
2023-04-06T02:40:41.637Z,62.94
2023-04-06T02:43:21.782Z,63.50
2023-04-06T02:45:51.983Z,63.15
2023-04-06T02:48:21.230Z,62.92
2023-04-06T02:50:47.896Z,64.02
2023-04-06T02:53:14.445Z,63.61
2023-04-06T02:55:41.473Z,63.36
2023-04-06T02:58:08.128Z,63.97
2023-04-06T03:00:56.704Z,63.92
2023-04-06T03:03:23.611Z,63.42
2023-04-06T03:05:50.651Z,63.93
2023-04-06T03:08:24.254Z,63.82
2023-04-06T03:10:51.131Z,64.24
2023-04-06T03:13:19.181Z,63.96
2023-04-06T03:15:49.193Z,63.79
2023-04-06T03:18:23.560Z,64.26
2023-04-06T03:20:52.540Z,64.05
2023-04-06T03:23:22.056Z,63.47
2023-04-06T03:25:53.228Z,63.80
2023-04-06T03:28:21.644Z,63.82
2023-04-06T03:30:55.248Z,63.78
2023-04-06T03:33:57.271Z,63.89
2023-04-06T03:36:28.443Z,64.61
2023-04-06T03:38:57.250Z,64.10
2023-04-06T03:41:23.909Z,64.33
2023-04-06T03:44:16.426Z,64.76
2023-04-06T03:46:44.714Z,64.30
2023-04-06T03:49:11.734Z,64.58
2023-04-06T03:51:39.922Z,64.70
2023-04-06T03:54:07.403Z,64.46
2023-04-06T03:56:33.843Z,64.75
2023-04-06T03:59:00.430Z,64.79
2023-04-06T04:01:28.413Z,64.73
2023-04-06T04:03:55.774Z,64.58
2023-04-06T04:06:22.342Z,65.22
2023-04-06T04:08:49.006Z,65.47
2023-04-06T04:11:17.129Z,65.41
2023-04-06T04:13:51.526Z,65.96
2023-04-06T04:16:18.409Z,65.31
2023-04-06T04:18:46.429Z,65.49
2023-04-06T04:21:13.030Z,64.74
2023-04-06T04:23:39.876Z,65.49
2023-04-06T04:26:06.993Z,64.78
2023-04-06T04:28:35.112Z,64.97
2023-04-06T04:31:01.772Z,65.58
2023-04-06T04:33:31.998Z,65.49
2023-04-06T04:36:01.954Z,65.26
2023-04-06T04:38:35.431Z,65.63
2023-04-06T04:41:02.510Z,65.69
2023-04-06T04:43:32.806Z,65.99
2023-04-06T04:46:02.662Z,65.50
2023-04-06T04:48:40.573Z,65.09
2023-04-06T04:51:07.788Z,65.08
2023-04-06T04:53:47.353Z,66.00
2023-04-06T04:56:22.364Z,65.62
2023-04-06T04:58:53.401Z,65.40
2023-04-06T05:01:19.967Z,65.79
2023-04-06T05:03:47.627Z,66.01
2023-04-06T05:06:16.439Z,65.40
2023-04-06T05:08:43.833Z,65.73
2023-04-06T05:11:11.260Z,66.12
2023-04-06T05:13:43.299Z,66.09
2023-04-06T05:16:16.082Z,65.28
2023-04-06T05:18:42.665Z,65.86
2023-04-06T05:21:10.438Z,66.07
2023-04-06T05:23:49.167Z,65.26
2023-04-06T05:26:15.903Z,65.53
2023-04-06T05:28:45.325Z,64.10
2023-04-06T05:31:12.522Z,63.87
2023-04-06T05:33:46.450Z,63.60
2023-04-06T05:36:16.458Z,63.27
2023-04-06T05:38:46.069Z,61.94
2023-04-06T05:41:22.009Z,62.03
2023-04-06T05:43:49.179Z,60.30
2023-04-06T05:46:16.681Z,59.77
2023-04-06T05:48:44.728Z,58.23
2023-04-06T05:51:13.269Z,58.00
2023-04-06T05:53:46.083Z,56.54
2023-04-06T05:56:12.888Z,56.08
2023-04-06T05:58:40.884Z,55.17
2023-04-06T06:01:11.058Z,54.20
2023-04-06T06:03:42.242Z,53.92
2023-04-06T06:06:08.738Z,53.05
2023-04-06T06:09:07.393Z,52.17
2023-04-06T06:11:40.151Z,51.70
2023-04-06T06:14:06.733Z,51.70
2023-04-06T06:16:36.915Z,50.92
2023-04-06T06:19:04.070Z,50.67
2023-04-06T06:21:32.425Z,50.50
2023-04-06T06:23:59.579Z,49.86
2023-04-06T06:26:26.282Z,49.23
2023-04-06T06:28:52.818Z,48.75
2023-04-06T06:31:23.915Z,49.15
2023-04-06T06:33:53.865Z,48.67
2023-04-06T06:36:23.791Z,48.92
2023-04-06T06:38:50.942Z,47.84
2023-04-06T06:41:19.616Z,47.53
2023-04-06T06:43:46.401Z,47.88
2023-04-06T06:46:13.036Z,47.59
2023-04-06T06:48:40.982Z,46.76
2023-04-06T06:51:07.750Z,65.59
2023-04-06T06:53:34.260Z,63.42
2023-04-06T06:56:01.215Z,60.37
2023-04-06T06:58:28.846Z,58.72
2023-04-06T07:00:59.821Z,56.92
2023-04-06T07:03:28.350Z,56.02
2023-04-06T07:05:55.581Z,53.60
2023-04-06T07:08:25.138Z,50.77
2023-04-06T07:10:57.272Z,51.56
2023-04-06T07:13:24.638Z,41.19
2023-04-06T07:15:54.232Z,41.49
2023-04-06T07:18:22.073Z,41.65
2023-04-06T07:20:48.906Z,42.05
2023-04-06T07:23:16.425Z,42.16
2023-04-06T07:25:44.741Z,42.02
2023-04-06T07:28:11.290Z,41.02
2023-04-06T07:30:38.692Z,41.30
2023-04-06T07:33:06.697Z,41.03
2023-04-06T07:35:37.599Z,41.36
2023-04-06T07:38:05.241Z,42.44
2023-04-06T07:40:34.007Z,43.17
2023-04-06T07:43:00.788Z,42.21
2023-04-06T07:45:27.387Z,42.54
2023-04-06T07:47:54.600Z,41.03
2023-04-06T07:50:22.035Z,40.02
2023-04-06T07:52:48.622Z,38.77
2023-04-06T07:55:15.700Z,37.88
2023-04-06T07:57:42.211Z,35.99
2023-04-06T08:00:10.698Z,35.89
2023-04-06T08:02:39.811Z,38.12
2023-04-06T08:05:07.189Z,37.92
2023-04-06T08:07:33.781Z,37.49
2023-04-06T08:10:00.753Z,36.06
2023-04-06T08:12:27.343Z,35.64
2023-04-06T08:14:53.886Z,34.72
2023-04-06T08:17:20.768Z,34.31
2023-04-06T08:19:47.333Z,33.31
2023-04-06T08:22:14.134Z,31.89
2023-04-06T08:24:40.998Z,31.00
2023-04-06T08:27:07.592Z,30.59
2023-04-06T08:29:34.216Z,29.86
2023-04-06T08:32:05.900Z,30.41
2023-04-06T08:34:34.300Z,29.01
2023-04-06T08:37:01.394Z,29.23
2023-04-06T08:39:29.170Z,28.55
2023-04-06T08:42:00.713Z,28.33
2023-04-06T08:44:28.456Z,28.04
2023-04-06T08:46:55.771Z,28.65
2023-04-06T08:49:23.152Z,27.91
2023-04-06T08:51:52.896Z,28.02
2023-04-06T08:54:19.404Z,27.31
2023-04-06T08:56:46.366Z,27.07
2023-04-06T08:59:13.329Z,27.21
2023-04-06T09:01:42.434Z,27.28
2023-04-06T09:04:12.625Z,27.15
2023-04-06T09:06:41.294Z,26.97
2023-04-06T09:09:07.963Z,26.48
2023-04-06T09:11:51.460Z,26.87
2023-04-06T09:14:18.630Z,26.89
2023-04-06T09:16:46.666Z,26.27
2023-04-06T09:19:13.331Z,26.89
2023-04-06T09:21:41.154Z,26.72
2023-04-06T09:24:10.296Z,26.72
2023-04-06T09:26:48.044Z,26.76
2023-04-06T09:29:25.653Z,26.78
2023-04-06T09:31:52.337Z,26.84
2023-04-06T09:34:23.865Z,26.88
2023-04-06T09:36:50.788Z,26.88
2023-04-06T09:39:22.224Z,27.20
2023-04-06T09:41:51.814Z,26.88
2023-04-06T09:44:18.618Z,27.22
2023-04-06T09:46:59.548Z,26.79
2023-04-06T09:49:32.224Z,26.90
2023-04-06T09:52:04.377Z,27.05
2023-04-06T09:54:32.467Z,26.74
2023-04-06T09:57:14.639Z,27.15
2023-04-06T10:00:12.370Z,27.28
2023-04-06T10:03:09.832Z,26.93
2023-04-06T10:05:45.034Z,26.18
2023-04-06T10:08:12.476Z,26.51
2023-04-06T10:10:39.078Z,26.58
2023-04-06T10:13:06.767Z,26.88
2023-04-06T10:15:34.729Z,26.42
2023-04-06T10:18:03.195Z,26.72
2023-04-06T10:20:44.867Z,26.31
2023-04-06T10:23:36.308Z,25.74
2023-04-06T10:26:03.397Z,25.79
2023-04-06T10:28:35.561Z,26.52
2023-04-06T10:31:05.662Z,26.24
2023-04-06T10:33:32.421Z,26.46
2023-04-06T10:36:20.940Z,26.44
2023-04-06T10:38:47.428Z,25.70
2023-04-06T10:41:14.818Z,25.81
2023-04-06T10:43:43.243Z,25.32
2023-04-06T10:46:11.722Z,25.66
2023-04-06T10:48:40.682Z,25.19
2023-04-06T10:51:14.559Z,25.83
2023-04-06T10:53:46.334Z,26.19
2023-04-06T10:56:14.948Z,26.31
2023-04-06T10:58:48.724Z,25.92
2023-04-06T11:01:20.369Z,26.59
2023-04-06T11:03:49.045Z,26.60
2023-04-06T11:06:25.930Z,26.72
2023-04-06T11:08:53.164Z,26.90
2023-04-06T11:11:22.498Z,26.89
2023-04-06T11:13:55.245Z,26.41
2023-04-06T11:16:27.122Z,26.12
2023-04-06T11:18:58.850Z,25.33
2023-04-06T11:21:44.725Z,24.80
2023-04-06T11:24:16.490Z,25.03
2023-04-06T11:26:49.334Z,25.74
2023-04-06T11:29:20.694Z,27.11
2023-04-06T11:31:49.033Z,27.96
2023-04-06T11:34:26.292Z,26.89
2023-04-06T11:37:00.453Z,26.35
2023-04-06T11:39:28.994Z,27.03
2023-04-06T11:41:59.098Z,26.57
2023-04-06T11:44:49.841Z,26.93
2023-04-06T11:47:17.426Z,27.75
2023-04-06T11:49:46.298Z,28.08
2023-04-06T11:52:16.924Z,28.03
2023-04-06T11:54:43.758Z,29.05
2023-04-06T11:57:10.281Z,27.28
2023-04-06T11:59:37.180Z,26.66
2023-04-06T12:02:04.383Z,27.16
2023-04-06T12:04:31.649Z,27.31
2023-04-06T12:06:58.676Z,26.89
2023-04-06T12:09:25.521Z,26.90
2023-04-06T12:11:52.766Z,27.01
2023-04-06T12:14:20.115Z,26.92
2023-04-06T12:16:47.165Z,26.71
2023-04-06T12:19:13.673Z,26.60
2023-04-06T12:21:41.789Z,27.66
2023-04-06T12:24:09.224Z,27.52
2023-04-06T12:26:36.784Z,27.25
2023-04-06T12:29:08.203Z,27.34
2023-04-06T12:31:39.917Z,27.28
2023-04-06T12:34:07.868Z,27.22
2023-04-06T12:36:34.653Z,27.17
2023-04-06T12:39:01.897Z,28.79
2023-04-06T12:41:31.830Z,27.48
2023-04-06T12:44:00.676Z,27.46
2023-04-06T12:46:27.505Z,27.36
2023-04-06T12:48:57.642Z,28.67
2023-04-06T12:51:24.429Z,27.58
2023-04-06T12:53:51.391Z,27.50
2023-04-06T12:56:19.492Z,27.64
2023-04-06T12:58:46.797Z,28.04
2023-04-06T13:01:14.313Z,28.87
2023-04-06T13:03:42.059Z,29.10
2023-04-06T13:06:09.509Z,28.58
2023-04-06T13:08:38.407Z,28.70
2023-04-06T13:11:06.178Z,28.69
2023-04-06T13:13:32.886Z,29.19
2023-04-06T13:16:03.220Z,29.61
2023-04-06T13:18:32.411Z,29.97
2023-04-06T13:21:00.566Z,30.08
2023-04-06T13:23:27.848Z,29.97
2023-04-06T13:26:02.752Z,29.28
2023-04-06T13:28:29.640Z,29.54
2023-04-06T13:30:56.936Z,30.77
2023-04-06T13:33:25.062Z,30.31
2023-04-06T13:35:52.024Z,30.66
2023-04-06T13:38:18.677Z,31.11
2023-04-06T13:40:45.364Z,30.77
2023-04-06T13:43:11.833Z,30.84
2023-04-06T13:45:39.452Z,31.47
2023-04-06T13:48:06.535Z,31.84
2023-04-06T13:50:33.937Z,32.33
2023-04-06T13:53:01.234Z,31.79
2023-04-06T13:55:27.741Z,32.19
2023-04-06T13:57:54.249Z,32.86
2023-04-06T14:00:21.260Z,33.04
2023-04-06T14:02:47.961Z,33.54
2023-04-06T14:05:14.937Z,33.02
2023-04-06T14:07:41.720Z,33.47
2023-04-06T14:13:05.896Z,32.94
2023-04-06T14:15:33.228Z,32.53
2023-04-06T14:17:59.759Z,32.64
2023-04-06T14:20:26.490Z,32.79
2023-04-06T14:22:56.741Z,32.60
2023-04-06T14:25:23.357Z,32.99
2023-04-06T14:27:50.021Z,33.01
2023-04-06T14:30:16.645Z,33.35
2023-04-06T14:32:43.248Z,33.65
2023-04-06T14:35:10.798Z,33.41
2023-04-06T14:37:37.678Z,34.03
2023-04-06T14:40:05.040Z,35.24
2023-04-06T14:42:31.575Z,35.55
2023-04-06T14:44:58.713Z,35.86
2023-04-06T14:47:25.685Z,36.35
2023-04-06T14:49:53.463Z,34.94
2023-04-06T14:52:20.110Z,35.15
2023-04-06T14:54:46.651Z,35.23
2023-04-06T14:57:13.211Z,34.92
2023-04-06T14:59:40.345Z,35.07
2023-04-06T15:02:07.490Z,35.20
2023-04-06T15:04:40.105Z,35.34
2023-04-06T15:07:06.716Z,35.70
2023-04-06T15:09:33.208Z,36.16
2023-04-06T15:11:59.933Z,35.80
2023-04-06T15:14:26.555Z,36.26
2023-04-06T15:16:54.133Z,36.30
2023-04-06T15:19:22.149Z,36.19
2023-04-06T15:21:51.222Z,36.45
2023-04-06T15:24:17.664Z,37.96
2023-04-06T15:26:46.456Z,37.76
2023-04-06T15:29:12.984Z,38.04
2023-04-06T15:31:39.849Z,38.79
2023-04-06T15:34:09.168Z,38.71
2023-04-06T15:36:36.763Z,38.67
2023-04-06T15:39:07.160Z,38.88
2023-04-06T15:41:33.929Z,39.15
2023-04-06T15:44:00.584Z,40.15
2023-04-06T15:46:28.690Z,40.61
2023-04-06T15:48:56.440Z,40.89
2023-04-06T15:51:24.093Z,40.77
2023-04-06T15:53:50.747Z,40.94
2023-04-06T15:56:17.254Z,41.07
2023-04-06T15:58:45.916Z,41.06
2023-04-06T16:01:15.678Z,41.10
2023-04-06T16:03:43.681Z,41.15
2023-04-06T16:06:10.952Z,41.77
2023-04-06T16:08:39.225Z,42.01
2023-04-06T16:11:05.842Z,42.34
2023-04-06T16:13:33.115Z,43.00
2023-04-06T16:15:59.831Z,43.24
2023-04-06T16:18:26.315Z,43.82
2023-04-06T16:20:54.606Z,44.97
2023-04-06T16:23:21.301Z,45.35
2023-04-06T16:25:47.783Z,45.55
2023-04-06T16:28:14.667Z,45.81
2023-04-06T16:30:43.541Z,45.44
2023-04-06T16:33:12.581Z,46.16
2023-04-06T16:35:46.536Z,46.51
2023-04-06T16:38:14.141Z,47.07
2023-04-06T16:40:41.039Z,47.09
2023-04-06T16:43:07.889Z,47.69
2023-04-06T16:45:34.645Z,48.23
2023-04-06T16:48:01.640Z,49.52
2023-04-06T16:50:28.235Z,50.82
2023-04-06T16:52:54.823Z,51.48
2023-04-06T16:55:21.431Z,52.82
2023-04-06T16:57:49.206Z,52.60
2023-04-06T17:00:16.840Z,52.76
2023-04-06T17:02:47.865Z,53.20
2023-04-06T17:05:14.603Z,53.52
2023-04-06T17:07:41.477Z,53.88
2023-04-06T17:10:08.409Z,54.16
2023-04-06T17:12:34.947Z,54.81
2023-04-06T17:15:01.636Z,55.58
2023-04-06T17:17:28.078Z,56.61
2023-04-06T17:19:54.616Z,56.14
2023-04-06T17:22:21.424Z,57.14
2023-04-06T17:24:48.913Z,57.86
2023-04-06T17:27:15.985Z,58.05
2023-04-06T17:29:43.049Z,58.58
2023-04-06T17:32:11.786Z,58.16
2023-04-06T17:34:38.535Z,59.68
2023-04-06T17:37:05.840Z,61.15
2023-04-06T17:39:32.567Z,60.60
2023-04-06T17:41:59.898Z,63.21
2023-04-06T17:44:26.559Z,64.42
2023-04-06T17:46:53.086Z,64.48
2023-04-06T17:49:19.621Z,65.40
2023-04-06T17:51:46.515Z,66.58
2023-04-06T17:54:13.043Z,67.76
2023-04-06T17:56:39.802Z,67.66
2023-04-06T17:59:09.240Z,68.46
2023-04-06T18:01:36.845Z,68.95
2023-04-06T18:04:03.469Z,68.61
2023-04-06T18:06:30.150Z,69.10
2023-04-06T18:08:56.818Z,70.15
2023-04-06T18:11:26.146Z,69.65
2023-04-06T18:13:53.044Z,70.98
2023-04-06T18:16:23.535Z,70.68
2023-04-06T18:18:50.273Z,71.26
2023-04-06T18:21:17.034Z,71.01
2023-04-06T18:23:43.514Z,71.58
2023-04-06T18:26:18.594Z,71.68
2023-04-06T18:28:46.075Z,72.57
2023-04-06T18:31:13.014Z,72.63
2023-04-06T18:33:39.543Z,72.66
2023-04-06T18:36:06.505Z,72.77
2023-04-06T18:38:33.039Z,72.68
2023-04-06T18:40:59.597Z,72.62
2023-04-06T18:43:26.448Z,72.31
2023-04-06T18:45:52.939Z,73.88
2023-04-06T18:48:19.824Z,73.25
2023-04-06T18:50:55.649Z,72.94
2023-04-06T18:53:22.730Z,73.60
2023-04-06T18:55:50.339Z,73.67
2023-04-06T18:58:17.004Z,74.37
2023-04-06T19:00:43.799Z,74.19
2023-04-06T19:03:10.684Z,74.74
2023-04-06T19:05:37.292Z,74.93
2023-04-06T19:08:03.847Z,73.98
2023-04-06T19:10:30.414Z,73.43
2023-04-06T19:12:58.106Z,74.26
2023-04-06T19:15:24.726Z,74.53
2023-04-06T19:17:51.475Z,74.82
2023-04-06T19:20:18.134Z,75.07
2023-04-06T19:22:46.413Z,74.70
2023-04-06T19:25:12.994Z,75.68
2023-04-06T19:27:39.683Z,74.49
2023-04-06T19:30:07.006Z,74.04
2023-04-06T19:32:34.673Z,74.38
2023-04-06T19:35:02.694Z,74.65
2023-04-06T19:37:29.189Z,74.56
2023-04-06T19:39:56.065Z,74.91
2023-04-06T19:42:25.282Z,75.51
2023-04-06T19:44:52.281Z,74.80
2023-04-06T19:47:19.318Z,75.13
2023-04-06T19:49:46.141Z,75.47
2023-04-06T19:52:13.248Z,74.76
2023-04-06T19:54:40.324Z,74.07
2023-04-06T19:57:08.271Z,73.83
2023-04-06T19:59:35.090Z,74.47
2023-04-06T20:02:02.551Z,73.90
2023-04-06T20:04:29.295Z,73.82
2023-04-06T20:06:55.964Z,74.36
2023-04-06T20:09:22.787Z,74.49
2023-04-06T20:11:49.342Z,75.20
2023-04-06T20:14:17.786Z,74.82
2023-04-06T20:16:44.862Z,75.17
2023-04-06T20:19:11.506Z,75.05
2023-04-06T20:21:39.641Z,73.87
2023-04-06T20:24:06.411Z,75.07
2023-04-06T20:26:33.460Z,75.53
2023-04-06T20:29:00.405Z,75.71
2023-04-06T20:31:27.793Z,75.25
2023-04-06T20:33:54.992Z,76.20
2023-04-06T20:36:22.398Z,75.27
2023-04-06T20:38:49.245Z,75.43
2023-04-06T20:41:16.394Z,74.54
2023-04-06T20:43:45.155Z,75.28
2023-04-06T20:46:18.352Z,74.56
2023-04-06T20:48:47.130Z,75.25
2023-04-06T20:51:23.255Z,76.23
2023-04-06T20:53:49.890Z,75.54
2023-04-06T20:56:17.886Z,75.57
2023-04-06T20:58:44.475Z,76.09
2023-04-06T21:01:20.733Z,76.24
2023-04-06T21:03:47.338Z,75.60
2023-04-06T21:06:13.852Z,76.86
2023-04-06T21:08:40.668Z,76.73
2023-04-06T21:11:07.858Z,76.58
2023-04-06T21:13:35.948Z,76.08
2023-04-06T21:16:03.459Z,76.11
2023-04-06T21:18:31.656Z,76.14
2023-04-06T21:20:58.574Z,76.23
2023-04-06T21:23:25.446Z,75.89
2023-04-06T21:25:53.288Z,74.80
2023-04-06T21:28:20.317Z,75.51
2023-04-06T21:30:46.901Z,76.16
2023-04-06T21:33:13.454Z,77.09
2023-04-06T21:35:41.366Z,76.60
2023-04-06T21:38:08.615Z,76.07
2023-04-06T21:40:35.511Z,76.64
2023-04-06T21:43:02.708Z,76.28
2023-04-06T21:45:32.539Z,75.40
2023-04-06T21:47:59.948Z,75.95
2023-04-06T21:50:26.607Z,75.86
2023-04-06T21:52:53.156Z,75.03
2023-04-06T21:55:21.178Z,75.51
2023-04-06T21:57:47.668Z,75.76
2023-04-06T22:00:15.132Z,75.87
2023-04-06T22:02:42.164Z,74.84
2023-04-06T22:05:09.767Z,75.35
2023-04-06T22:07:36.896Z,75.76
2023-04-06T22:10:05.220Z,75.94
2023-04-06T22:12:31.907Z,76.17
2023-04-06T22:14:58.431Z,76.33
2023-04-06T22:17:25.859Z,76.21
2023-04-06T22:19:52.759Z,75.62
2023-04-06T22:22:19.482Z,76.84
2023-04-06T22:24:46.180Z,77.08
2023-04-06T22:27:12.744Z,77.13
2023-04-06T22:29:40.390Z,77.11
2023-04-06T22:32:06.924Z,77.06
2023-04-06T22:34:33.679Z,77.84
2023-04-06T22:37:00.280Z,78.50
2023-04-06T22:39:26.818Z,77.77
2023-04-06T22:41:54.399Z,78.43
2023-04-06T22:44:21.677Z,78.75
2023-04-06T22:46:48.384Z,78.90
2023-04-06T22:49:14.869Z,79.73
2023-04-06T22:51:42.718Z,79.22
2023-04-06T22:54:10.558Z,78.71
2023-04-06T22:56:37.148Z,78.95
2023-04-06T22:59:03.873Z,79.28
2023-04-06T23:01:33.167Z,80.11
2023-04-06T23:03:59.917Z,79.14
2023-04-06T23:06:27.297Z,79.05
2023-04-06T23:08:54.291Z,78.74
2023-04-06T23:11:22.576Z,78.52
2023-04-06T23:13:49.954Z,79.28
2023-04-06T23:16:16.504Z,79.39
2023-04-06T23:18:43.135Z,79.18
2023-04-06T23:21:09.709Z,79.22
2023-04-06T23:23:36.853Z,78.32
2023-04-06T23:26:03.632Z,78.69
2023-04-06T23:28:30.882Z,79.40
2023-04-06T23:30:57.695Z,79.18
2023-04-06T23:33:24.474Z,79.24
2023-04-06T23:35:52.319Z,79.40
2023-04-06T23:38:19.008Z,79.85
2023-04-06T23:40:45.922Z,79.14
2023-04-06T23:43:12.697Z,79.64
2023-04-06T23:45:41.790Z,79.92
2023-04-06T23:48:10.118Z,79.84
2023-04-06T23:50:36.792Z,79.57
2023-04-06T23:53:04.317Z,79.54
2023-04-06T23:55:31.235Z,80.43
2023-04-06T23:57:57.908Z,80.99
